This is the latest recevied weather packets stored in our database for station/object KC9DRE. If no packets are shown the sender has not sent any weather packets the latest 10 day(s).
| Time | Temp. | Humidity | Pressure | Rain* | Wind** | Luminosity | Snow |
|---|---|---|---|---|---|---|---|
| 1778195777 | 17.78° C | 36% | 1014.5 hPa | 0 mm | - | 102 W/m² | - |
| 1778195475 | 18.33° C | 34% | 1014.8 hPa | 0 mm | - | 112 W/m² | - |
| 1778195171 | 18.33° C | 36% | 1014.6 hPa | 0 mm | - | 125 W/m² | - |
| 1778194868 | 17.78° C | 37% | 1014.8 hPa | 0 mm | - | 136 W/m² | - |
| 1778194563 | 17.22° C | 38% | 1014.6 hPa | 0 mm | - | 150 W/m² | - |
| 1778194260 | 16.67° C | 37% | 1014.6 hPa | 0 mm | - | 166 W/m² | - |
| 1778193955 | 17.22° C | 34% | 1014.8 hPa | 0 mm | - | 180 W/m² | - |
| 1778193652 | 17.78° C | 33% | 1014.6 hPa | 0 mm | - | 195 W/m² | - |
| 1778193348 | 17.78° C | 33% | 1014.7 hPa | 0 mm | - | 212 W/m² | - |
| 1778193045 | 18.33° C | 36% | 1015 hPa | 0 mm | - | 226 W/m² | - |
| 1778192742 | 17.78° C | 37% | 1014.7 hPa | 0 mm | - | 243 W/m² | - |
| 1778192439 | 17.22° C | 34% | 1014.9 hPa | 0 mm | - | 258 W/m² | - |
| 1778192135 | 17.22° C | 34% | 1014.9 hPa | 0 mm | - | 275 W/m² | - |
| 1778191832 | 17.78° C | 34% | 1014.7 hPa | 0 mm | - | 293 W/m² | - |
| 1778191529 | 18.33° C | 33% | 1015.1 hPa | 0 mm | - | 315 W/m² | - |
| 1778191227 | 18.33° C | 35% | 1014.7 hPa | 0 mm | - | 334 W/m² | - |
| 1778190923 | 17.78° C | 34% | 1014.6 hPa | 0 mm | - | 351 W/m² | - |
| 1778190621 | 17.22° C | 33% | 1014.8 hPa | 0 mm | - | 360 W/m² | - |
| 1778190317 | 17.22° C | 36% | 1014.9 hPa | 0 mm | - | 380 W/m² | - |
| 1778190013 | 17.22° C | 38% | 1014.5 hPa | 0 mm | - | 129 W/m² | - |
| 1778189710 | 17.78° C | 33% | 1014.7 hPa | 0 mm | - | 409 W/m² | - |
| 1778189407 | 17.78° C | 32% | 1014.8 hPa | 0 mm | - | 425 W/m² | - |
| 1778189102 | 18.33° C | 33% | 1014.7 hPa | 0 mm | - | 439 W/m² | - |
| 1778188800 | 17.78° C | 33% | 1014.8 hPa | 0 mm | - | 459 W/m² | - |
| 1778188496 | 18.33° C | 31% | 1014.7 hPa | 0 mm | - | 474 W/m² | - |
* Rain latest hour (hover to see other rain measurements)
** Current wind speed in m/s (hover to see current wind gust speed)